U24216 / OE-IVZ 7700 Squawk Report (19th of May, 2019)

Aircraft A320 Reg No. OE-IVZ Age 4 years old
Model A320 Jet engines 2 First flight 11-02-15
Registered 16-04-18 Rollout 02-15 Delivered 18-02-15
Construction No. 6485 Line No. N/A Series 214(SL)
ADSHEX 4402AE Airline name easyJet Europe Owner N/A
Airfield based Vienna-Schwechat~Vienna~OE First tracked 2018-04-19 10:54:00

Flight history for OE-IVZ

Route Flight No Date Playback
Gatwick (LGW) - Malpensa (MXP) U28199 2019-06-26 21:15:00
Malpensa (MXP) - Gatwick (LGW) U28198 2019-06-26 18:34:00
Manchester (MAN) - Malpensa (MXP) U22922 2019-06-26 15:52:00
Malpensa (MXP) - Manchester (MAN) U22921 2019-06-26 14:07:00
Lamezia Terme (SUF) - Malpensa (MXP) U22862 2019-06-26 11:33:00
Malpensa (MXP) - Lamezia Terme (SUF) U22861 2019-06-26 09:07:00
Bari (BRI) - Malpensa (MXP) U22836 2019-06-26 06:39:00
Malpensa (MXP) - Bari (BRI) U22835 2019-06-25 21:32:00
???? N/A 2019-06-25 19:22:00
Edinburgh (EDI) - Malpensa (MXP) U22684 2019-06-25 18:05:00
Malpensa (MXP) - Edinburgh (EDI) U22683 2019-06-25 15:45:00
Charles De Gaulle (CDG) - Malpensa (MXP) U22782 2019-06-25 12:48:00
Gatwick (LGW) - Charles De Gaulle (CDG) U28323 2019-06-25 09:21:00
Charles De Gaulle (CDG) - Gatwick (LGW) U28322 2019-06-25 06:31:00
Cote D Azur (NCE) - Charles De Gaulle (CDG) U23998 2019-06-25 05:47:00
Nantes Atlantique (NTE) - Cote D Azur (NCE) U21676 2019-06-24 20:36:00
EuroAirport Basel Mulhouse Freiburg (BSL) - Nantes Atlantique (NTE) U21011 2019-06-24 16:18:00
Nantes Atlantique (NTE) - EuroAirport Basel Mulhouse Freiburg (BSL) U21012 2019-06-24 14:05:00
Lesquin (LIL) - Nantes Atlantique (NTE) U21719 2019-06-24 08:00:00
Nantes Atlantique (NTE) - Lesquin (LIL) U21720 2019-06-24 07:01:00
Time Lat Lon Altitude Heading Speed Vertical Rate
2019-05-19 20:23:39 GMT 48.726276 2.352078 0 253 8 0
2019-05-19 20:23:33 GMT 48.726345 2.352357 0 261 8 0
2019-05-19 20:23:11 GMT 48.725784 2.353080 0 345 11 0
2019-05-19 20:22:59 GMT 48.725227 2.353315 0 345 13 0
2019-05-19 20:22:17 GMT 48.723354 2.354724 0 300 10 0
2019-05-19 20:22:04 GMT 48.723061 2.355405 0 315 9 0
2019-05-19 20:21:58 GMT 48.722912 2.355628 0 323 8 0
2019-05-19 20:21:46 GMT 48.722614 2.355863 0 343 8 0
2019-05-19 20:21:34 GMT 48.722271 2.356022 0 345 7 0
2019-05-19 20:21:26 GMT 48.722122 2.356074 0 345 4 0
2019-05-19 20:21:14 GMT 48.722050 2.356116 0 345 3 0
2019-05-19 20:20:21 GMT 48.721863 2.356188 0 345 2 0
2019-05-19 20:19:50 GMT 48.721851 2.356188 0 345 2 0
2019-05-19 20:17:18 GMT 48.724777 2.387554 0 255 140 0
2019-05-19 20:17:04 GMT 48.727158 2.400724 600 255 143 -768
2019-05-19 20:16:59 GMT 48.727997 2.405139 600 255 143 -768
2019-05-19 20:16:48 GMT 48.729954 2.415980 775 255 142 -768
2019-05-19 20:16:36 GMT 48.731964 2.426922 850 255 142 -768
2019-05-19 20:16:33 GMT 48.732513 2.429858 900 255 142 -768
2019-05-19 20:16:28 GMT 48.733582 2.435785 975 255 142 -704
2019-05-19 20:16:22 GMT 48.734512 2.440555 1,025 255 143 -704
2019-05-19 20:16:17 GMT 48.735725 2.447132 1,100 255 145 -704
2019-05-19 20:16:11 GMT 48.736748 2.452625 1,175 255 147 -832
2019-05-19 20:16:05 GMT 48.737633 2.457613 1,250 255 148 -768
2019-05-19 20:16:00 GMT 48.738564 2.462600 1,300 255 149 -896
2019-05-19 20:15:53 GMT 48.739929 2.470093 1,425 255 150 -896
2019-05-19 20:15:50 GMT 48.740612 2.473586 1,450 255 151 -768
2019-05-19 20:15:44 GMT 48.741440 2.478333 1,525 255 156 -768
2019-05-19 20:15:39 GMT 48.742401 2.483614 1,575 255 157 -960
2019-05-19 20:15:33 GMT 48.743774 2.490868 1,675 255 159 -832
2019-05-19 20:15:29 GMT 48.744614 2.495559 1,750 255 160 -960
2019-05-19 20:15:24 GMT 48.745605 2.501080 1,825 255 164 -960
2019-05-19 20:15:16 GMT 48.747070 2.508827 1,950 255 169 -768
2019-05-19 20:15:13 GMT 48.747829 2.512906 2,000 255 171 -896
2019-05-19 20:15:08 GMT 48.748943 2.519194 2,050 255 176 -832
2019-05-19 20:15:02 GMT 48.750992 2.530397 2,175 255 189 -960
2019-05-19 20:14:59 GMT 48.750992 2.530397 2,200 255 181 -896
2019-05-19 20:14:51 GMT 48.752483 2.538565 2,400 255 189 -960
2019-05-19 20:14:46 GMT 48.753880 2.546226 2,375 255 192 -960
2019-05-19 20:14:42 GMT 48.755089 2.552803 2,450 255 198 -1216
2019-05-19 20:14:39 GMT 48.756672 2.561332 2,600 255 199 -1344
2019-05-19 20:14:31 GMT 48.757416 2.565660 2,650 255 199 -1408
2019-05-19 20:14:28 GMT 48.758255 2.570223 3,050 256 199 0
2019-05-19 20:14:24 GMT 48.759094 2.574776 2,800 255 199 -1344
2019-05-19 20:14:20 GMT 48.760071 2.580167 2,900 255 198 -1152
2019-05-19 20:14:13 GMT 48.761856 2.590027 3,025 256 197 -512
2019-05-19 20:14:10 GMT 48.762444 2.593569 3,075 256 200 -640
2019-05-19 20:14:07 GMT 48.763050 2.597038 3,075 256 199 0
2019-05-19 20:14:04 GMT 48.763824 2.601647 3,100 256 200 -448
2019-05-19 20:14:01 GMT 48.764603 2.606295 3,125 256 199 -128
2019-05-19 20:13:58 GMT 48.765377 2.610554 3,150 256 199 0
2019-05-19 20:13:53 GMT 48.767715 2.624606 3,150 257 198 0
2019-05-19 20:13:47 GMT 48.767715 2.624606 3,150 257 198 0
2019-05-19 20:13:43 GMT 48.768539 2.629817 3,150 256 199 -64
2019-05-19 20:13:38 GMT 48.769753 2.636791 3,150 255 199 -64
2019-05-19 20:13:32 GMT 48.771198 2.644597 3,150 255 199 -192
2019-05-19 20:13:27 GMT 48.772640 2.652331 3,175 256 198 -320
2019-05-19 20:13:24 GMT 48.773026 2.654748 3,200 259 198 -512
2019-05-19 20:13:17 GMT 48.774036 2.665630 3,325 280 191 -1216
2019-05-19 20:13:14 GMT 48.773991 2.669750 3,300 280 191 -1216
2019-05-19 20:13:11 GMT 48.773663 2.673436 3,375 283 191 -1216
2019-05-19 20:13:05 GMT 48.771709 2.682037 3,475 296 190 -1024
2019-05-19 20:13:00 GMT 48.770218 2.686808 3,575 296 190 -960
2019-05-19 20:12:55 GMT 48.768219 2.693059 3,650 296 192 -896
2019-05-19 20:12:52 GMT 48.766029 2.699818 3,725 296 192 -832
2019-05-19 20:12:45 GMT 48.764259 2.705383 3,775 296 194 -640
2019-05-19 20:12:40 GMT 48.761719 2.713271 3,850 297 198 -512
2019-05-19 20:12:34 GMT 48.760071 2.718271 3,875 297 200 -512
2019-05-19 20:12:28 GMT 48.757603 2.725910 3,925 297 204 -512
2019-05-19 20:12:24 GMT 48.755356 2.732567 3,975 297 207 -640
2019-05-19 20:12:18 GMT 48.752949 2.739860 4,025 298 211 -576
2019-05-19 20:12:13 GMT 48.750854 2.745859 4,075 299 213 -576
2019-05-19 20:12:07 GMT 48.748077 2.753132 4,150 306 213 -1152
2019-05-19 20:12:02 GMT 48.744873 2.759611 4,250 314 212 -1152
2019-05-19 20:11:51 GMT 48.736130 2.769752 4,400 329 216 -512
2019-05-19 20:11:41 GMT 48.727810 2.777373 4,500 329 222 -576
2019-05-19 20:11:33 GMT 48.720200 2.784400 4,575 329 227 -512
2019-05-19 20:11:29 GMT 48.717133 2.787217 4,600 329 231 -448
2019-05-19 20:11:23 GMT 48.707382 2.796161 4,700 329 238 -576
2019-05-19 20:11:19 GMT 48.707382 2.796161 4,675 329 238 -576
2019-05-19 20:11:13 GMT 48.702667 2.800457 4,725 329 239 -512
2019-05-19 20:11:09 GMT 48.698109 2.804622 4,800 329 244 -576
2019-05-19 20:11:06 GMT 48.694012 2.808308 4,800 330 245 -640
2019-05-19 20:10:59 GMT 48.687775 2.813946 4,875 330 249 -704
2019-05-19 20:10:55 GMT 48.685215 2.816258 4,900 330 252 -1024
2019-05-19 20:10:52 GMT 48.682423 2.818788 4,950 330 252 -1152
2019-05-19 20:10:48 GMT 48.677582 2.823134 5,025 330 253 -1024
2019-05-19 20:10:42 GMT 48.664536 2.834825 5,275 330 263 -1472
2019-05-19 20:10:35 GMT 48.664536 2.834825 5,200 330 260 -1088
2019-05-19 20:10:30 GMT 48.658905 2.839825 5,300 330 261 -1472
2019-05-19 20:10:24 GMT 48.653095 2.845025 5,425 330 262 -1472
2019-05-19 20:10:16 GMT 48.644119 2.853135 5,625 330 263 -1472
2019-05-19 20:10:13 GMT 48.641361 2.855578 5,675 329 263 -1472
2019-05-19 20:10:04 GMT 48.632172 2.863910 5,950 330 264 -1472
2019-05-19 20:10:00 GMT 48.627731 2.867925 5,950 330 264 -1472
2019-05-19 20:09:51 GMT 48.618896 2.875953 6,200 329 265 -1472
2019-05-19 20:09:48 GMT 48.615967 2.878629 6,275 330 266 -1472
2019-05-19 20:09:43 GMT 48.609196 2.884706 6,450 329 267 -1472
2019-05-19 20:09:38 GMT 48.604305 2.889187 6,550 329 267 -1472
2019-05-19 20:09:33 GMT 48.594532 2.898078 6,775 329 268 -1536
2019-05-19 20:09:29 GMT 48.594532 2.898078 6,775 330 268 -1536
2019-05-19 20:09:21 GMT 48.586670 2.905180 6,975 330 268 -1536
2019-05-19 20:09:18 GMT 48.583466 2.907997 7,025 330 269 -1472
2019-05-19 20:09:11 GMT 48.575165 2.914991 7,200 334 270 -1408
2019-05-19 20:09:07 GMT 48.571346 2.917810 7,300 335 270 -1408
2019-05-19 20:08:58 GMT 48.562180 2.923772 7,475 339 270 -1024
2019-05-19 20:08:55 GMT 48.557236 2.926518 7,675 340 270 -960
2019-05-19 20:08:49 GMT 48.550213 2.930458 7,650 340 270 -1024
2019-05-19 20:08:45 GMT 48.537323 2.937646 7,875 340 269 -960
2019-05-19 20:08:39 GMT 48.537323 2.937646 7,800 340 270 -960
2019-05-19 20:08:34 GMT 48.532894 2.940144 7,875 340 270 -960
2019-05-19 20:08:31 GMT 48.527962 2.942963 7,950 340 269 -960
2019-05-19 20:08:28 GMT 48.524689 2.944829 8,000 340 269 -960
2019-05-19 20:08:23 GMT 48.519562 2.947787 8,050 339 270 -960
2019-05-19 20:08:17 GMT 48.511642 2.952364 8,150 340 270 -960
2019-05-19 20:08:12 GMT 48.507889 2.954477 8,225 340 270 -960
2019-05-19 20:08:04 GMT 48.497562 2.960382 8,475 340 272 -960
2019-05-19 20:08:01 GMT 48.494293 2.962294 8,450 340 274 -1024
2019-05-19 20:07:58 GMT 48.490486 2.964429 8,450 340 274 -1024
2019-05-19 20:07:53 GMT 48.484314 2.967999 8,525 340 275 -1024
2019-05-19 20:07:49 GMT 48.479828 2.970573 8,650 340 275 -960
2019-05-19 20:07:43 GMT 48.473602 2.974126 8,700 340 276 -960
2019-05-19 20:07:34 GMT 48.460602 2.981450 8,875 340 278 -1024
2019-05-19 20:07:29 GMT 48.455566 2.984337 8,925 340 278 -1088
2019-05-19 20:07:22 GMT 48.448544 2.988209 9,075 340 278 -1152
2019-05-19 20:07:18 GMT 48.443253 2.991169 9,125 340 278 -896
2019-05-19 20:07:13 GMT 48.435509 2.995437 9,225 340 277 -960
2019-05-19 20:07:07 GMT 48.428741 2.999056 9,325 341 276 -1472
2019-05-19 20:07:02 GMT 48.422009 3.002737 9,425 341 275 -1536
2019-05-19 20:06:54 GMT 48.413582 3.007146 9,600 341 276 -1408
2019-05-19 20:06:51 GMT 48.410694 3.008664 9,650 342 276 -1024
2019-05-19 20:06:45 GMT 48.402191 3.012930 9,875 342 277 -768
2019-05-19 20:06:38 GMT 48.393936 3.017120 9,850 342 277 -768
2019-05-19 20:06:33 GMT 48.386909 3.020807 9,950 341 278 -320
2019-05-19 20:06:28 GMT 48.382782 3.023001 9,975 341 278 -192
2019-05-19 20:06:24 GMT 48.372849 3.028324 10,000 341 278 -64
2019-05-19 20:06:20 GMT 48.370895 3.029335 10,000 341 278 64
2019-05-19 20:06:13 GMT 48.363400 3.033455 10,000 341 278 0
2019-05-19 20:06:08 GMT 48.359253 3.035677 10,000 340 278 -64
2019-05-19 20:05:59 GMT 48.347672 3.042086 10,000 340 278 64
2019-05-19 20:05:56 GMT 48.341892 3.045309 10,000 340 278 0
2019-05-19 20:05:51 GMT 48.336819 3.048200 10,000 340 278 -128
2019-05-19 20:05:48 GMT 48.333710 3.049974 10,025 340 278 -128
2019-05-19 20:05:37 GMT 48.319363 3.057813 10,075 341 281 -640
2019-05-19 20:05:27 GMT 48.308094 3.063885 10,350 314 285 -1408
2019-05-19 20:05:24 GMT 48.305630 3.065186 10,250 340 282 -1344
2019-05-19 20:05:16 GMT 48.294479 3.072017 10,450 333 283 -1408
2019-05-19 20:05:03 GMT 48.281235 3.086002 10,750 316 284 -1536
2019-05-19 20:04:55 GMT 48.273460 3.098361 10,975 314 285 -1408
2019-05-19 20:04:45 GMT 48.264954 3.112018 11,175 314 288 -1088
2019-05-19 20:04:40 GMT 48.257259 3.124309 11,300 314 292 -832
2019-05-19 20:04:34 GMT 48.254471 3.128779 11,350 314 293 -832
2019-05-19 20:04:22 GMT 48.243156 3.146716 11,500 314 302 -704
2019-05-19 20:04:13 GMT 48.233986 3.161027 11,625 315 307 -768
2019-05-19 20:04:01 GMT 48.222015 3.178993 11,750 316 315 -704
2019-05-19 20:03:50 GMT 48.209702 3.196810 11,900 316 323 -768
2019-05-19 20:03:40 GMT 48.200512 3.211260 12,025 311 332 -832
2019-05-19 20:03:29 GMT 48.188965 3.231882 12,175 310 340 -832
2019-05-19 20:03:19 GMT 48.178402 3.250869 12,325 310 348 -832
2019-05-19 20:03:08 GMT 48.168091 3.270264 12,450 308 355 -768
2019-05-19 20:02:58 GMT 48.157974 3.290474 12,600 306 362 -576
2019-05-19 20:02:45 GMT 48.145721 3.316885 12,725 305 365 -832
2019-05-19 20:02:36 GMT 48.137527 3.334844 12,850 305 365 -896
2019-05-19 20:02:25 GMT 48.126068 3.359276 13,025 306 367 -896
2019-05-19 20:02:14 GMT 48.114948 3.382028 13,350 307 375 -1792
2019-05-19 20:02:05 GMT 48.105469 3.401161 13,475 307 376 -2112
2019-05-19 20:01:53 GMT 48.093304 3.425340 13,850 307 380 -2176
2019-05-19 20:01:43 GMT 48.083340 3.445129 14,225 308 382 -2368
2019-05-19 20:01:33 GMT 48.071548 3.468315 14,625 308 385 -2368
2019-05-19 20:01:21 GMT 48.059692 3.491661 15,100 308 387 -2304
2019-05-19 20:01:10 GMT 48.047775 3.515202 15,450 307 392 -1920
2019-05-19 20:01:01 GMT 48.037395 3.536119 16,100 307 395 -2240
2019-05-19 20:00:50 GMT 48.024536 3.562111 16,250 307 397 -2176
2019-05-19 20:00:39 GMT 48.012070 3.587247 16,700 307 399 -2240
2019-05-19 20:00:35 GMT 48.009659 3.592117 16,750 307 399 -2240
2019-05-19 20:00:28 GMT 48.000851 3.609854 17,025 307 402 -2240
2019-05-19 20:00:14 GMT 47.985214 3.640938 17,575 307 405 -2240
2019-05-19 20:00:05 GMT 47.975758 3.659644 17,875 307 407 -2240
2019-05-19 19:59:59 GMT 47.963242 3.684402 19,275 308 413 -2304
2019-05-19 19:59:55 GMT 47.963242 3.684402 18,250 308 412 -2304
2019-05-19 19:59:52 GMT 47.959141 3.692603 18,400 308 412 -2304
2019-05-19 19:59:44 GMT 47.951294 3.708023 18,675 308 417 -2304
2019-05-19 19:59:33 GMT 47.937588 3.735070 19,125 308 419 -2304
2019-05-19 19:59:19 GMT 47.922550 3.764578 19,625 308 424 -2368
2019-05-19 19:59:08 GMT 47.897369 3.813904 20,375 308 426 -2368
2019-05-19 19:58:58 GMT 47.897369 3.813904 20,475 308 427 -2368
2019-05-19 19:58:48 GMT 47.885788 3.836220 20,800 308 429 -2432
2019-05-19 19:58:45 GMT 47.879955 3.847468 20,950 308 432 -2496
2019-05-19 19:58:38 GMT 47.871948 3.862962 21,275 308 432 -2432
2019-05-19 19:58:34 GMT 47.867294 3.871925 21,475 308 432 -2496
2019-05-19 19:58:31 GMT 47.865601 3.875221 21,575 308 433 -2496
2019-05-19 19:58:28 GMT 47.860451 3.885075 21,700 308 433 -2496
2019-05-19 19:58:14 GMT 47.844109 3.916908 22,225 308 436 -2496
2019-05-19 19:58:07 GMT 47.834885 3.935028 22,575 308 436 -2432
2019-05-19 19:57:54 GMT 47.819366 3.965652 23,075 307 436 -2432
2019-05-19 19:57:51 GMT 47.815247 3.973755 23,225 307 435 -2432
2019-05-19 19:57:43 GMT 47.792908 4.018387 24,425 307 440 -2432
2019-05-19 19:57:32 GMT 47.792908 4.018387 24,000 307 434 -2496
2019-05-19 19:57:28 GMT 47.788570 4.026982 24,150 308 431 -2432
2019-05-19 19:57:22 GMT 47.781647 4.040703 24,425 308 432 -2432
2019-05-19 19:57:18 GMT 47.777260 4.049237 24,575 308 431 -2432
2019-05-19 19:57:11 GMT 47.766907 4.069473 24,900 308 433 -2432
2019-05-19 19:57:07 GMT 47.763248 4.076562 25,025 308 433 -2432
2019-05-19 19:57:00 GMT 47.754776 4.093182 25,325 308 435 -2432
2019-05-19 19:56:56 GMT 47.749653 4.103112 25,500 308 435 -2432
2019-05-19 19:56:49 GMT 47.741364 4.119324 25,975 308 438 -2432
2019-05-19 19:56:45 GMT 47.736481 4.128887 25,925 307 439 -2432
2019-05-19 19:56:39 GMT 47.728428 4.144804 26,200 307 441 -2496
2019-05-19 19:56:34 GMT 47.724003 4.153466 26,375 307 441 -2496
2019-05-19 19:56:29 GMT 47.716187 4.168968 26,625 307 443 -2432
2019-05-19 19:56:24 GMT 47.710556 4.180161 26,825 307 443 -2432
2019-05-19 19:56:18 GMT 47.701767 4.197739 27,100 307 445 -2496
2019-05-19 19:56:13 GMT 47.697327 4.206596 27,250 307 446 -2496
2019-05-19 19:56:07 GMT 47.690231 4.220810 29,400 307 450 -2496
2019-05-19 19:56:03 GMT 47.685551 4.230229 27,725 307 448 -2496
2019-05-19 19:55:56 GMT 47.676147 4.248962 28,025 307 450 -2560
2019-05-19 19:55:53 GMT 47.672195 4.256927 28,125 307 450 -2560
2019-05-19 19:55:45 GMT 47.663269 4.274780 28,450 307 451 -2496
2019-05-19 19:55:41 GMT 47.658005 4.285149 28,625 307 452 -2496
2019-05-19 19:55:35 GMT 47.648636 4.303471 28,925 308 454 -2560
2019-05-19 19:55:29 GMT 47.641525 4.317352 29,175 308 455 -2880
2019-05-19 19:55:26 GMT 47.638458 4.323257 29,275 308 455 -3008
2019-05-19 19:55:23 GMT 47.630714 4.338050 30,325 309 456 -2944
2019-05-19 19:55:20 GMT 47.630714 4.338050 31,000 308 457 -1792
2019-05-19 19:55:16 GMT 47.626011 4.346853 31,000 308 457 -1792
2019-05-19 19:55:12 GMT 47.619736 4.358620 30,100 309 456 -2944
2019-05-19 19:55:09 GMT 47.615799 4.365898 30,325 309 457 -2176
2019-05-19 19:55:03 GMT 47.606785 4.382489 30,500 309 457 -2624
2019-05-19 19:54:55 GMT 47.593845 4.406363 31,425 309 457 -2304
2019-05-19 19:54:51 GMT 47.593845 4.406363 31,175 309 457 -2304
2019-05-19 19:54:44 GMT 47.578766 4.434906 31,325 308 457 -1792
2019-05-19 19:54:41 GMT 47.578766 4.434906 31,675 308 457 -1664
2019-05-19 19:54:36 GMT 47.574142 4.443832 31,575 308 456 -1600
2019-05-19 19:54:31 GMT 47.566471 4.458759 31,725 308 456 -1280
2019-05-19 19:54:26 GMT 47.560364 4.470680 31,825 308 456 -896
2019-05-19 19:54:19 GMT 47.551987 4.487022 31,925 308 456 -896
2019-05-19 19:54:15 GMT 47.546082 4.498421 32,000 308 456 -896
2019-05-19 19:54:11 GMT 47.541962 4.506386 32,050 308 457 -960
2019-05-19 19:54:08 GMT 47.538631 4.512775 32,100 308 456 -960
2019-05-19 19:54:02 GMT 47.530151 4.529114 32,175 308 457 -896
2019-05-19 19:53:58 GMT 47.524200 4.540443 32,250 308 457 -896
2019-05-19 19:53:54 GMT 47.519268 4.549748 32,775 309 458 -1024
2019-05-19 19:53:48 GMT 47.511429 4.564476 32,425 309 458 -832
2019-05-19 19:53:43 GMT 47.505890 4.574776 32,475 309 458 -896
2019-05-19 19:53:36 GMT 47.496319 4.592285 32,675 309 457 -960
2019-05-19 19:53:30 GMT 47.487564 4.608342 32,675 309 457 -960
2019-05-19 19:53:26 GMT 47.481419 4.619540 32,750 309 458 -1024
2019-05-19 19:53:21 GMT 47.466663 4.646935 32,975 309 458 -1024
2019-05-19 19:53:14 GMT 47.466663 4.646935 33,025 308 452 -1024
2019-05-19 19:53:10 GMT 47.460659 4.658203 33,025 309 454 -1024
2019-05-19 19:53:06 GMT 47.450043 4.678345 33,150 308 456 -960
2019-05-19 19:53:03 GMT 47.448212 4.681824 33,400 309 454 -1024
2019-05-19 19:52:53 GMT 47.438644 4.699951 33,650 309 455 -960
2019-05-19 19:52:50 GMT 47.435806 4.705376 33,350 309 455 -896
2019-05-19 19:52:47 GMT 47.430866 4.714614 33,400 309 454 -1024
2019-05-19 19:52:43 GMT 47.426697 4.722404 33,475 309 454 -896
2019-05-19 19:52:39 GMT 47.420197 4.734558 33,525 309 454 -1024
2019-05-19 19:52:32 GMT 47.411777 4.750038 33,700 309 454 -1024
2019-05-19 19:52:29 GMT 47.408146 4.756798 33,725 308 450 -1024
2019-05-19 19:52:21 GMT 47.396942 4.777748 33,825 308 463 -960
2019-05-19 19:52:16 GMT 47.389984 4.791000 33,875 307 457 -832
2019-05-19 19:52:10 GMT 47.383568 4.803349 34,475 307 457 -832
2019-05-19 19:52:07 GMT 47.378727 4.812786 34,075 307 457 -832
2019-05-19 19:52:04 GMT 47.376213 4.817787 34,100 307 457 -832
2019-05-19 19:52:00 GMT 47.370117 4.829727 34,150 307 458 -832
2019-05-19 19:51:56 GMT 47.364304 4.841194 34,225 307 458 -896
2019-05-19 19:51:50 GMT 47.357220 4.855253 34,325 307 459 -960
2019-05-19 19:51:47 GMT 47.355217 4.859267 34,475 307 461 -960
2019-05-19 19:51:44 GMT 47.350662 4.868317 34,400 307 460 -960
2019-05-19 19:51:38 GMT 47.342602 4.884479 34,500 307 462 -960
2019-05-19 19:51:35 GMT 47.338505 4.892508 34,550 307 462 -960
2019-05-19 19:51:28 GMT 47.329193 4.910537 34,650 308 465 -1024
2019-05-19 19:51:24 GMT 47.323376 4.921523 34,750 309 464 -1024
2019-05-19 19:51:16 GMT 47.314362 4.938492 34,875 308 466 -960
2019-05-19 19:51:13 GMT 47.308247 4.949975 34,875 308 467 -960
2019-05-19 19:51:04 GMT 47.297352 4.970468 35,050 308 466 -960
2019-05-19 19:50:57 GMT 47.289185 4.986008 35,175 308 466 -1024
2019-05-19 19:50:53 GMT 47.284412 4.994976 35,225 308 465 -960
2019-05-19 19:50:47 GMT 47.275753 5.011456 35,325 308 464 -960
2019-05-19 19:50:41 GMT 47.266071 5.029978 35,450 307 459 -896
2019-05-19 19:50:35 GMT 47.260300 5.040939 35,500 308 464 -896
2019-05-19 19:50:31 GMT 47.255859 5.049385 36,025 309 476 64
2019-05-19 19:50:26 GMT 47.247116 5.065865 35,625 308 466 -896
2019-05-19 19:50:20 GMT 47.240746 5.077867 35,700 309 468 -960
2019-05-19 19:50:12 GMT 47.228687 5.100473 35,875 309 473 -832
2019-05-19 19:50:09 GMT 47.224358 5.108502 35,900 309 473 -832
2019-05-19 19:50:05 GMT 47.220016 5.116539 35,925 309 474 -768
2019-05-19 19:50:01 GMT 47.214844 5.126152 36,000 309 474 -384
2019-05-19 19:49:58 GMT 47.208858 5.137235 36,025 309 475 0
2019-05-19 19:49:55 GMT 47.204479 5.145334 36,025 309 475 0
2019-05-19 19:49:52 GMT 47.200699 5.152451 36,025 309 475 0
2019-05-19 19:49:45 GMT 47.193604 5.165565 36,025 309 475 0
2019-05-19 19:49:41 GMT 47.187584 5.176673 36,025 309 476 0
2019-05-19 19:49:38 GMT 47.177761 5.194913 36,025 309 476 64
2019-05-19 19:49:31 GMT 47.172871 5.204069 36,025 309 476 64
2019-05-19 19:49:28 GMT 47.163116 5.222351 36,025 309 476 64
2019-05-19 19:49:24 GMT 47.157394 5.233063 35,975 309 477 64
2019-05-19 19:49:20 GMT 47.157394 5.233063 36,000 317 475 0
2019-05-19 19:49:17 GMT 47.155506 5.236605 36,000 308 477 128
2019-05-19 19:49:13 GMT 47.145222 5.256042 36,000 308 477 64
2019-05-19 19:49:07 GMT 47.140938 5.264212 36,000 308 477 64
2019-05-19 19:49:04 GMT 47.132046 5.281114 35,975 308 477 64
2019-05-19 19:49:00 GMT 47.132046 5.281114 35,975 308 477 64
2019-05-19 19:48:57 GMT 47.127960 5.288750 35,975 308 477 64
2019-05-19 19:48:53 GMT 47.122238 5.299461 35,975 311 476 0
2019-05-19 19:48:50 GMT 47.116638 5.309425 35,975 312 477 0
2019-05-19 19:48:47 GMT 47.113194 5.315270 35,975 312 476 0
2019-05-19 19:48:44 GMT 47.109375 5.321538 35,975 315 475 64
2019-05-19 19:48:41 GMT 47.102692 5.331802 35,975 315 475 64
2019-05-19 19:48:35 GMT 47.097107 5.340042 35,975 317 475 -64
2019-05-19 19:48:32 GMT 47.091732 5.347595 35,975 317 476 0
2019-05-19 19:48:29 GMT 47.085030 5.356891 35,975 317 476 0
2019-05-19 19:48:24 GMT 47.072273 5.374568 35,975 317 476 -64
2019-05-19 19:48:20 GMT 47.066826 5.382104 35,975 317 476 -64
2019-05-19 19:48:13 GMT 47.059147 5.392667 36,000 317 474 -64
2019-05-19 19:48:10 GMT 47.055328 5.397949 36,000 317 474 0
2019-05-19 19:48:04 GMT 47.047028 5.409462 36,000 317 475 0
2019-05-19 19:48:00 GMT 47.039406 5.420063 36,000 317 474 0
2019-05-19 19:47:57 GMT 47.032379 5.429718 36,000 317 474 0
2019-05-19 19:47:53 GMT 47.027954 5.435908 36,000 317 474 0
2019-05-19 19:47:50 GMT 47.022228 5.443866 36,000 317 474 0
2019-05-19 19:47:47 GMT 47.019669 5.447388 36,000 317 474 0
2019-05-19 19:47:44 GMT 47.014572 5.454437 36,000 317 474 0
2019-05-19 19:47:41 GMT 47.009491 5.461441 36,000 317 474 0
2019-05-19 19:47:37 GMT 47.002762 5.470711 36,000 317 474 0
2019-05-19 19:47:33 GMT 46.996078 5.479980 36,000 317 474 0
2019-05-19 19:47:30 GMT 46.991638 5.486160 36,000 317 475 0
2019-05-19 19:47:27 GMT 46.981155 5.500717 36,000 317 475 0
2019-05-19 19:47:24 GMT 46.981155 5.500717 36,000 316 468 0
2019-05-19 19:47:21 GMT 46.973190 5.511703 36,000 317 474 -64
2019-05-19 19:47:15 GMT 46.968090 5.518799 36,000 317 474 0
2019-05-19 19:47:12 GMT 46.963619 5.524996 36,000 317 474 0
2019-05-19 19:47:09 GMT 46.957569 5.533377 36,000 317 474 0
2019-05-19 19:47:05 GMT 46.949608 5.544363 36,000 317 475 -64
2019-05-19 19:47:00 GMT 46.944534 5.551476 36,000 317 475 0
2019-05-19 19:46:55 GMT 46.931717 5.569038 36,000 317 475 0
2019-05-19 19:46:52 GMT 46.931717 5.569038 36,025 317 476 0
2019-05-19 19:46:49 GMT 46.925961 5.576900 36,000 317 476 0
2019-05-19 19:46:45 GMT 46.920227 5.584831 36,000 317 476 0
2019-05-19 19:46:42 GMT 46.913158 5.594506 36,000 317 476 0
2019-05-19 19:46:39 GMT 46.899380 5.613380 36,000 317 476 0
2019-05-19 19:46:32 GMT 46.899380 5.613380 36,000 317 476 0
2019-05-19 19:46:29 GMT 46.894547 5.619987 36,000 318 476 0
2019-05-19 19:46:24 GMT 46.886536 5.630905 36,025 317 476 0
2019-05-19 19:46:20 GMT 46.877838 5.642784 36,025 317 476 0
2019-05-19 19:46:17 GMT 46.873672 5.648483 36,000 317 476 0
2019-05-19 19:46:14 GMT 46.865936 5.658964 36,000 317 476 0
2019-05-19 19:46:08 GMT 46.860786 5.665924 36,000 318 476 0
2019-05-19 19:46:04 GMT 46.846264 5.685631 36,000 318 476 0
2019-05-19 19:45:59 GMT 46.841766 5.691789 36,025 318 476 -64
2019-05-19 19:45:52 GMT 46.833664 5.702708 36,025 317 476 -64
2019-05-19 19:45:49 GMT 46.829502 5.708427 36,025 317 477 -64
2019-05-19 19:45:45 GMT 46.824738 5.715101 36,025 316 477 -64
2019-05-19 19:45:41 GMT 46.815910 5.727722 36,025 314 477 0
2019-05-19 19:45:38 GMT 46.811600 5.734059 36,025 314 477 0
2019-05-19 19:45:33 GMT 46.804272 5.745163 36,025 314 477 0
2019-05-19 19:45:30 GMT 46.799103 5.753128 36,025 314 477 0
2019-05-19 19:45:26 GMT 46.793335 5.761927 36,025 314 477 0
2019-05-19 19:45:22 GMT 46.788769 5.768921 36,025 314 477 0
2019-05-19 19:45:19 GMT 46.784206 5.775856 36,025 314 477 64
2019-05-19 19:45:16 GMT 46.779007 5.783766 36,025 314 477 64
2019-05-19 19:45:12 GMT 46.772896 5.793091 36,025 314 478 64
2019-05-19 19:45:08 GMT 46.764702 5.805588 36,025 314 478 64
2019-05-19 19:45:05 GMT 46.761955 5.809776 36,025 314 478 64
2019-05-19 19:45:02 GMT 46.756760 5.817663 36,025 314 477 64
2019-05-19 19:44:59 GMT 46.753994 5.821861 36,000 314 477 64
2019-05-19 19:44:56 GMT 46.749760 5.828384 36,000 314 478 64
2019-05-19 19:44:53 GMT 46.745499 5.834946 36,000 314 478 64
2019-05-19 19:44:50 GMT 46.740028 5.843353 36,000 314 478 64
2019-05-19 19:44:47 GMT 46.734535 5.851730 36,000 314 478 0
2019-05-19 19:44:44 GMT 46.730579 5.857773 36,000 314 478 0
2019-05-19 19:44:40 GMT 46.717804 5.877351 36,000 314 478 0
2019-05-19 19:44:36 GMT 46.717804 5.877351 36,000 314 478 0
2019-05-19 19:44:33 GMT 46.715378 5.881102 36,000 314 478 0
2019-05-19 19:44:30 GMT 46.709911 5.889427 36,000 314 478 0
2019-05-19 19:44:27 GMT 46.705032 5.896912 36,000 314 478 64
2019-05-19 19:44:24 GMT 46.701111 5.902954 36,000 314 478 64
2019-05-19 19:44:21 GMT 46.695007 5.912252 36,000 314 478 0
2019-05-19 19:44:17 GMT 46.688961 5.921562 36,000 314 478 64
2019-05-19 19:44:14 GMT 46.683151 5.930407 36,000 314 478 64
2019-05-19 19:44:10 GMT 46.678627 5.937424 36,000 314 477 0
2019-05-19 19:44:07 GMT 46.673458 5.945320 35,975 314 478 0
2019-05-19 19:44:04 GMT 46.669830 5.950951 35,975 314 478 0
2019-05-19 19:44:01 GMT 46.665871 5.956993 35,975 314 477 0
2019-05-19 19:43:58 GMT 46.660446 5.965375 35,975 314 477 0
2019-05-19 19:43:55 GMT 46.655304 5.973335 35,975 314 477 0
2019-05-19 19:43:52 GMT 46.651348 5.979378 36,000 314 476 0
2019-05-19 19:43:49 GMT 46.646507 5.986794 35,975 314 477 0
2019-05-19 19:43:43 GMT 46.637661 6.000252 36,000 314 476 -64
2019-05-19 19:43:40 GMT 46.633713 6.006239 36,000 314 476 64
2019-05-19 19:43:36 GMT 46.627350 6.016019 36,000 314 476 0
2019-05-19 19:43:32 GMT 46.620670 6.026207 35,975 314 476 0
2019-05-19 19:43:29 GMT 46.616714 6.032181 35,975 314 476 0
2019-05-19 19:43:26 GMT 46.611557 6.040069 35,975 314 476 -64
2019-05-19 19:43:21 GMT 46.604874 6.050251 36,000 314 476 -128
2019-05-19 19:43:18 GMT 46.600937 6.056280 36,000 314 476 -64
2019-05-19 19:43:15 GMT 46.595215 6.065056 36,000 314 475 0
2019-05-19 19:43:11 GMT 46.589127 6.074301 36,025 314 475 64
2019-05-19 19:43:07 GMT 46.583359 6.083009 36,025 314 475 -64
2019-05-19 19:43:03 GMT 46.576630 6.093155 36,025 314 475 0
2019-05-19 19:43:00 GMT 46.573605 6.097755 36,025 314 475 0
2019-05-19 19:42:56 GMT 46.560837 6.117040 36,000 314 475 64
2019-05-19 19:42:52 GMT 46.560837 6.117040 36,000 314 475 64
2019-05-19 19:42:49 GMT 46.555069 6.125749 36,000 314 475 64
2019-05-19 19:42:45 GMT 46.549255 6.134457 36,000 314 475 64
2019-05-19 19:42:42 GMT 46.539528 6.149117 35,975 314 475 64
2019-05-19 19:42:39 GMT 46.539528 6.149117 36,000 314 475 64
2019-05-19 19:42:36 GMT 46.536503 6.153717 36,000 314 475 64
2019-05-19 19:42:33 GMT 46.530079 6.163330 36,000 314 475 64
2019-05-19 19:42:29 GMT 46.526138 6.169359 36,000 314 475 64
2019-05-19 19:42:26 GMT 46.521282 6.176651 36,000 314 475 0
2019-05-19 19:42:22 GMT 46.509064 6.195083 35,975 314 475 64
2019-05-19 19:42:18 GMT 46.509064 6.195083 35,975 314 475 64
2019-05-19 19:42:15 GMT 46.502106 6.205601 35,975 314 475 0
2019-05-19 19:42:11 GMT 46.498142 6.211601 35,975 314 475 0
2019-05-19 19:42:08 GMT 46.493584 6.218468 35,975 314 475 0
2019-05-19 19:42:04 GMT 46.483292 6.234138 35,975 314 475 0
2019-05-19 19:41:58 GMT 46.477802 6.242363 35,975 314 475 0
2019-05-19 19:41:55 GMT 46.471748 6.251564 35,975 314 475 -64
2019-05-19 19:41:52 GMT 46.467186 6.258430 36,000 314 475 0
2019-05-19 19:41:47 GMT 46.462051 6.266226 35,975 314 475 0
2019-05-19 19:41:44 GMT 46.457176 6.273537 36,000 314 474 -64
2019-05-19 19:41:41 GMT 46.452621 6.280428 36,000 314 475 -64
2019-05-19 19:41:38 GMT 46.447449 6.288199 36,000 314 474 0
2019-05-19 19:41:35 GMT 46.443832 6.293692 36,000 314 474 -64
2019-05-19 19:41:32 GMT 46.437160 6.303818 36,000 314 474 -64
2019-05-19 19:41:29 GMT 46.434414 6.307938 36,000 314 474 -64
2019-05-19 19:41:26 GMT 46.428967 6.316177 36,000 314 473 -64
2019-05-19 19:41:22 GMT 46.418655 6.331742 36,000 314 473 -64
2019-05-19 19:41:19 GMT 46.418655 6.331742 36,025 314 473 0
2019-05-19 19:41:16 GMT 46.415039 6.337169 36,025 314 473 -64
2019-05-19 19:41:13 GMT 46.408035 6.347686 36,025 314 474 -64
2019-05-19 19:41:10 GMT 46.405334 6.351839 36,025 314 474 -64
2019-05-19 19:41:06 GMT 46.399246 6.360950 36,025 314 473 -64
2019-05-19 19:41:03 GMT 46.394424 6.368294 36,025 314 473 0
2019-05-19 19:40:59 GMT 46.388031 6.377898 36,025 314 474 0
2019-05-19 19:40:56 GMT 46.384369 6.383331 36,025 314 474 0
2019-05-19 19:40:53 GMT 46.380135 6.389717 36,025 314 474 0
2019-05-19 19:40:50 GMT 46.373756 6.399330 36,025 315 474 0
2019-05-19 19:40:47 GMT 46.370686 6.403862 36,025 315 474 0
2019-05-19 19:40:44 GMT 46.365517 6.411621 36,025 315 475 0
2019-05-19 19:40:41 GMT 46.360909 6.418419 36,025 315 475 0
2019-05-19 19:40:38 GMT 46.355713 6.426198 36,025 315 475 64
2019-05-19 19:40:35 GMT 46.352390 6.431190 36,000 315 474 64
2019-05-19 19:40:32 GMT 46.348114 6.437586 36,025 314 475 64
2019-05-19 19:40:29 GMT 46.343811 6.443950 36,000 314 475 64
2019-05-19 19:40:26 GMT 46.333488 6.459412 36,000 314 475 64
2019-05-19 19:40:23 GMT 46.328880 6.466278 36,000 314 475 64
2019-05-19 19:40:20 GMT 46.328880 6.466278 36,000 314 475 64
2019-05-19 19:40:16 GMT 46.319778 6.479991 36,000 314 475 128
2019-05-19 19:40:13 GMT 46.317352 6.483675 36,000 314 475 64
2019-05-19 19:40:10 GMT 46.314285 6.488231 35,975 314 476 64
2019-05-19 19:40:06 GMT 46.306686 6.499686 35,975 314 476 0
2019-05-19 19:40:03 GMT 46.303650 6.504318 35,975 314 476 0
2019-05-19 19:40:00 GMT 46.298492 6.512079 35,975 314 476 -64
2019-05-19 19:39:53 GMT 46.282932 6.535423 36,000 314 475 0
2019-05-19 19:39:50 GMT 46.279907 6.539955 36,000 314 475 0
2019-05-19 19:39:42 GMT 46.270752 6.553613 36,000 314 475 0
2019-05-19 19:39:39 GMT 46.266769 6.559575 36,000 314 475 0
2019-05-19 19:39:33 GMT 46.256699 6.574580 36,000 315 475 -64
2019-05-19 19:39:29 GMT 46.249973 6.584587 36,000 315 475 -64
2019-05-19 19:39:26 GMT 46.246628 6.589586 36,000 315 475 -64
2019-05-19 19:39:23 GMT 46.238056 6.602303 36,000 315 475 -64
2019-05-19 19:39:17 GMT 46.233170 6.609512 36,000 315 475 -64
2019-05-19 19:39:11 GMT 46.222137 6.625854 36,025 315 475 -64
2019-05-19 19:39:08 GMT 46.213291 6.639038 36,025 315 474 0
2019-05-19 19:39:01 GMT 46.208405 6.646248 36,025 315 474 0
2019-05-19 19:38:58 GMT 46.203232 6.653963 36,025 315 474 0
2019-05-19 19:38:55 GMT 46.199844 6.658988 36,025 315 474 0
2019-05-19 19:38:52 GMT 46.194077 6.667629 36,000 314 475 0
2019-05-19 19:38:49 GMT 46.190109 6.673508 36,025 314 475 0
2019-05-19 19:38:46 GMT 46.185196 6.680759 36,025 314 475 0
2019-05-19 19:38:43 GMT 46.182129 6.685315 36,025 314 469 0
2019-05-19 19:38:40 GMT 46.174839 6.696236 36,025 314 475 64
2019-05-19 19:38:37 GMT 46.172371 6.699875 36,000 314 475 64
2019-05-19 19:38:34 GMT 46.167801 6.706684 36,000 315 475 64
2019-05-19 19:38:30 GMT 46.160797 6.717135 36,000 315 475 64
2019-05-19 19:38:27 GMT 46.155289 6.725281 36,000 315 475 64
2019-05-19 19:38:22 GMT 46.148258 6.735718 36,000 315 475 64
2019-05-19 19:38:18 GMT 46.141228 6.746223 36,000 315 475 0
2019-05-19 19:38:13 GMT 46.135391 6.754850 36,000 315 475 0
2019-05-19 19:38:10 GMT 46.129898 6.762956 36,000 315 475 0
2019-05-19 19:38:07 GMT 46.126511 6.767980 36,000 315 475 0
2019-05-19 19:38:03 GMT 46.120056 6.777493 36,000 315 475 0
2019-05-19 19:38:00 GMT 46.115158 6.784728 36,000 315 475 0
2019-05-19 19:37:57 GMT 46.106918 6.796987 36,000 315 475 0
2019-05-19 19:37:51 GMT 46.096802 6.811925 36,000 315 475 0
2019-05-19 19:37:48 GMT 46.096802 6.811925 36,000 315 475 0
2019-05-19 19:37:42 GMT 46.089111 6.823247 36,000 315 475 0
2019-05-19 19:37:39 GMT 46.082703 6.832759 36,000 315 475 -64
2019-05-19 19:37:36 GMT 46.077759 6.839927 36,000 315 475 0
2019-05-19 19:37:32 GMT 46.072540 6.847631 36,000 315 475 0
2019-05-19 19:37:27 GMT 46.064255 6.859823 36,000 315 475 0
2019-05-19 19:37:24 GMT 46.057526 6.869805 36,025 315 475 0
2019-05-19 19:37:18 GMT 46.050476 6.880188 36,000 315 475 0
2019-05-19 19:37:14 GMT 46.043427 6.890571 36,000 315 475 0
2019-05-19 19:37:09 GMT 46.037018 6.900084 36,000 315 475 0
2019-05-19 19:37:06 GMT 46.027176 6.914520 36,000 315 475 0
2019-05-19 19:37:00 GMT 46.024429 6.918573 36,000 315 475 0
2019-05-19 19:36:57 GMT 46.019215 6.926262 36,000 314 470 0
2019-05-19 19:36:54 GMT 46.013718 6.934383 36,000 315 475 0
2019-05-19 19:36:51 GMT 46.009094 6.941149 36,000 315 475 -64
2019-05-19 19:36:46 GMT 46.002045 6.951599 36,000 315 475 -64
2019-05-19 19:36:43 GMT 45.995911 6.960643 36,025 315 475 -64
2019-05-19 19:36:39 GMT 45.991005 6.967873 36,025 315 475 -64
2019-05-19 19:36:35 GMT 45.985138 6.976387 36,025 315 475 -64
2019-05-19 19:36:32 GMT 45.980576 6.983151 36,025 315 475 0
2019-05-19 19:36:28 GMT 45.975632 6.990386 36,025 315 475 0
2019-05-19 19:36:25 GMT 45.969772 6.998961 36,025 315 475 0
2019-05-19 19:36:22 GMT 45.964890 7.006187 36,025 315 475 0
2019-05-19 19:36:19 GMT 45.961487 7.011086 36,025 315 475 0
2019-05-19 19:36:15 GMT 45.952877 7.023697 36,025 315 475 0
2019-05-19 19:36:12 GMT 45.949448 7.028637 36,025 315 475 64
2019-05-19 19:36:08 GMT 45.944229 7.036274 36,025 315 475 64
2019-05-19 19:36:04 GMT 45.938049 7.045251 36,025 315 475 64
2019-05-19 19:36:01 GMT 45.933426 7.052017 36,025 315 476 64
2019-05-19 19:35:58 GMT 45.928162 7.059654 36,000 315 476 64
2019-05-19 19:35:52 GMT 45.914291 7.079885 36,000 315 476 64
2019-05-19 19:35:49 GMT 45.914291 7.079885 36,000 315 476 64
2019-05-19 19:35:43 GMT 45.905674 7.092499 36,000 315 476 0
2019-05-19 19:35:39 GMT 45.900421 7.100183 36,000 315 475 64
2019-05-19 19:35:34 GMT 45.890579 7.114585 36,000 315 476 64
2019-05-19 19:35:31 GMT 45.886276 7.120882 36,000 315 475 0
2019-05-19 19:35:28 GMT 45.882538 7.126282 36,000 315 476 0
2019-05-19 19:35:22 GMT 45.868061 7.147430 35,975 315 476 0
2019-05-19 19:35:19 GMT 45.868061 7.147430 35,975 315 475 0
2019-05-19 19:35:13 GMT 45.853909 7.168098 35,975 315 475 0
2019-05-19 19:35:07 GMT 45.849289 7.174809 35,975 315 475 0
2019-05-19 19:35:02 GMT 45.840958 7.186867 35,975 315 475 0
2019-05-19 19:34:59 GMT 45.832912 7.198517 35,975 315 475 0
2019-05-19 19:34:52 GMT 45.826164 7.208405 35,975 315 475 0
2019-05-19 19:34:49 GMT 45.822159 7.214172 35,975 315 475 0
2019-05-19 19:34:46 GMT 45.810753 7.230789 35,975 315 475 0
2019-05-19 19:34:42 GMT 45.810753 7.230789 35,975 315 475 0
2019-05-19 19:34:39 GMT 45.806145 7.237450 35,975 315 474 0
2019-05-19 19:34:36 GMT 45.801212 7.244659 35,975 315 474 0
2019-05-19 19:34:33 GMT 45.798138 7.249123 35,975 315 474 0
2019-05-19 19:34:30 GMT 45.793530 7.255852 35,975 315 474 0
2019-05-19 19:34:27 GMT 45.789551 7.261628 35,975 315 474 0
2019-05-19 19:34:24 GMT 45.783428 7.270615 35,975 315 474 0
2019-05-19 19:34:21 GMT 45.777561 7.279129 36,000 315 474 -64
2019-05-19 19:34:18 GMT 45.772659 7.286280 36,000 315 474 -64
2019-05-19 19:34:12 GMT 45.766525 7.295190 36,000 315 474 -64
2019-05-19 19:34:08 GMT 45.757915 7.307693 36,000 315 474 0
2019-05-19 19:34:05 GMT 45.754799 7.312088 36,000 315 474 0
2019-05-19 19:34:02 GMT 45.749268 7.320177 36,000 315 474 0
2019-05-19 19:33:58 GMT 45.743114 7.329048 36,000 315 473 0
2019-05-19 19:33:55 GMT 45.738510 7.335786 36,000 315 473 0
2019-05-19 19:33:49 GMT 45.730225 7.347844 36,000 315 474 0
2019-05-19 19:33:46 GMT 45.724686 7.355883 36,000 315 475 0
2019-05-19 19:33:40 GMT 45.717041 7.367003 36,000 315 474 0
2019-05-19 19:33:36 GMT 45.710587 7.376381 36,000 315 474 0
2019-05-19 19:33:32 GMT 45.696747 7.396477 36,000 315 474 0
2019-05-19 19:33:28 GMT 45.696747 7.396477 36,000 315 474 0
2019-05-19 19:33:25 GMT 45.692417 7.402725 36,000 315 474 0
2019-05-19 19:33:22 GMT 45.689026 7.407599 36,000 315 474 0
2019-05-19 19:33:17 GMT 45.681011 7.419205 36,000 315 475 0
2019-05-19 19:33:14 GMT 45.676403 7.425934 36,000 315 475 0
2019-05-19 19:33:11 GMT 45.672073 7.432182 36,000 315 475 0
2019-05-19 19:33:07 GMT 45.664997 7.442413 36,000 315 475 0
2019-05-19 19:33:04 GMT 45.656342 7.454961 36,000 315 477 0
2019-05-19 19:33:01 GMT 45.656342 7.454961 36,000 315 477 0
2019-05-19 19:32:57 GMT 45.650475 7.463493 36,000 315 477 0
2019-05-19 19:32:51 GMT 45.639954 7.478668 36,000 315 477 0
2019-05-19 19:32:46 GMT 45.632225 7.489861 36,000 315 477 0
2019-05-19 19:32:41 GMT 45.623241 7.502838 36,000 315 477 0
2019-05-19 19:32:38 GMT 45.619217 7.508686 36,000 315 478 0
2019-05-19 19:32:35 GMT 45.616745 7.512237 36,000 315 477 64
2019-05-19 19:32:32 GMT 45.611481 7.519874 36,000 315 478 0
2019-05-19 19:32:29 GMT 45.606201 7.527489 36,000 315 478 0
2019-05-19 19:32:25 GMT 45.599033 7.537788 36,000 315 478 0
2019-05-19 19:32:22 GMT 45.595032 7.543556 36,000 315 477 64
2019-05-19 19:32:19 GMT 45.590973 7.549349 36,000 315 477 64
2019-05-19 19:32:16 GMT 45.584137 7.559212 36,000 315 477 64
2019-05-19 19:32:11 GMT 45.579155 7.566353 36,000 315 477 64
2019-05-19 19:32:08 GMT 45.574219 7.573465 36,000 315 477 64
2019-05-19 19:32:05 GMT 45.569229 7.580633 36,000 315 477 0
2019-05-19 19:32:00 GMT 45.556824 7.598386 36,000 315 475 64
2019-05-19 19:31:57 GMT 45.556824 7.598386 36,000 315 473 0
2019-05-19 19:31:53 GMT 45.550919 7.606826 35,975 315 474 64
2019-05-19 19:31:50 GMT 45.545078 7.615267 36,000 315 473 0
2019-05-19 19:31:44 GMT 45.536095 7.628062 36,000 315 470 -64
2019-05-19 19:31:40 GMT 45.530273 7.636414 36,000 315 471 -64
2019-05-19 19:31:37 GMT 45.525948 7.642532 36,000 315 470 -64
2019-05-19 19:31:33 GMT 45.519524 7.651710 36,000 315 468 -64
2019-05-19 19:31:29 GMT 45.512493 7.661691 36,000 315 464 0
2019-05-19 19:31:26 GMT 45.508530 7.667345 36,025 315 465 -64
2019-05-19 19:31:23 GMT 45.504868 7.672577 36,025 315 465 0
2019-05-19 19:31:18 GMT 45.496990 7.683798 36,025 315 463 0
2019-05-19 19:31:14 GMT 45.491264 7.691970 36,000 315 463 0
2019-05-19 19:31:11 GMT 45.486423 7.698870 36,000 315 463 0
2019-05-19 19:31:08 GMT 45.480698 7.707043 36,000 315 463 0
2019-05-19 19:31:02 GMT 45.471634 7.719988 36,000 315 463 0
2019-05-19 19:30:59 GMT 45.468922 7.723858 36,000 315 463 0
2019-05-19 19:30:55 GMT 45.462250 7.733394 36,000 315 463 0
2019-05-19 19:30:51 GMT 45.455608 7.742883 36,000 315 463 0
2019-05-19 19:30:47 GMT 45.450813 7.749783 36,000 315 464 0
2019-05-19 19:30:43 GMT 45.443829 7.759764 36,000 315 465 64
2019-05-19 19:30:40 GMT 45.438709 7.767133 36,000 315 465 0
2019-05-19 19:30:35 GMT 45.432953 7.775312 36,000 316 465 64
2019-05-19 19:30:32 GMT 45.428326 7.781670 36,000 320 464 0
2019-05-19 19:30:29 GMT 45.414875 7.798752 36,000 320 464 0
2019-05-19 19:30:24 GMT 45.414875 7.798752 36,000 321 464 0
2019-05-19 19:30:20 GMT 45.407288 7.807729 36,000 321 463 0
2019-05-19 19:30:17 GMT 45.402008 7.813960 36,000 321 463 0
2019-05-19 19:30:14 GMT 45.397385 7.819388 36,000 321 463 0
2019-05-19 19:30:10 GMT 45.392120 7.825535 36,000 321 463 0
2019-05-19 19:30:07 GMT 45.387131 7.831356 36,000 321 463 64
2019-05-19 19:30:03 GMT 45.375259 7.845243 36,000 321 462 64
2019-05-19 19:29:56 GMT 45.368683 7.853001 36,000 321 462 0
2019-05-19 19:29:53 GMT 45.362736 7.859914 36,000 321 460 0
2019-05-19 19:29:50 GMT 45.356125 7.867618 36,000 321 461 0
2019-05-19 19:29:44 GMT 45.347233 7.878068 36,000 321 461 0
2019-05-19 19:29:40 GMT 45.342957 7.883083 36,000 321 461 0
2019-05-19 19:29:36 GMT 45.329819 7.898451 36,000 321 460 0
2019-05-19 19:29:33 GMT 45.322266 7.907344 36,000 321 460 0
2019-05-19 19:29:30 GMT 45.322266 7.907344 36,000 321 461 -64
2019-05-19 19:29:24 GMT 45.315720 7.915061 36,000 321 460 0
2019-05-19 19:29:19 GMT 45.306839 7.925393 36,000 321 461 0
2019-05-19 19:29:13 GMT 45.298599 7.935006 36,000 321 461 0
2019-05-19 19:29:08 GMT 45.288765 7.946532 36,000 321 460 0
2019-05-19 19:29:02 GMT 45.278915 7.958025 36,000 321 460 0
2019-05-19 19:28:58 GMT 45.274338 7.963388 36,000 321 460 0
2019-05-19 19:28:53 GMT 45.264771 7.974505 36,000 321 459 0
2019-05-19 19:28:49 GMT 45.257904 7.982548 36,000 321 460 0
2019-05-19 19:28:46 GMT 45.250031 7.991750 36,000 321 460 0
2019-05-19 19:28:42 GMT 45.246414 7.995954 36,000 321 460 0
2019-05-19 19:28:38 GMT 45.238861 8.004783 36,000 321 460 0
2019-05-19 19:28:32 GMT 45.231365 8.013589 36,000 321 459 0
2019-05-19 19:28:26 GMT 45.220551 8.026232 36,000 321 458 0
2019-05-19 19:28:23 GMT 45.209106 8.039573 36,000 321 458 64
2019-05-19 19:28:15 GMT 45.201553 8.048335 36,000 321 458 0
2019-05-19 19:28:12 GMT 45.197941 8.052577 36,000 321 459 0
2019-05-19 19:28:08 GMT 45.190750 8.060957 36,000 321 458 0
2019-05-19 19:28:04 GMT 45.184532 8.068185 36,000 321 458 64
2019-05-19 19:28:01 GMT 45.179306 8.074297 36,000 321 459 0
2019-05-19 19:27:57 GMT 45.173409 8.081114 36,000 321 459 0
2019-05-19 19:27:53 GMT 45.164246 8.091823 36,000 321 459 0
2019-05-19 19:27:50 GMT 45.157013 8.100194 36,000 321 459 -64
2019-05-19 19:27:47 GMT 45.157013 8.100194 36,000 321 459 0
2019-05-19 19:27:44 GMT 45.151760 8.106302 36,000 321 459 -64
2019-05-19 19:27:41 GMT 45.145847 8.113135 36,000 321 459 -64
2019-05-19 19:27:34 GMT 45.125832 8.136381 36,025 321 458 -64
2019-05-19 19:27:29 GMT 45.125832 8.136381 36,025 321 459 -64
2019-05-19 19:27:26 GMT 45.121922 8.140869 36,025 321 457 0
2019-05-19 19:27:21 GMT 45.114052 8.149980 36,025 321 457 -64
2019-05-19 19:27:18 GMT 45.110138 8.154537 36,025 321 457 0
2019-05-19 19:27:15 GMT 45.103580 8.162105 36,025 321 457 0
2019-05-19 19:27:12 GMT 45.098648 8.167746 36,025 321 457 64
2019-05-19 19:27:09 GMT 45.093109 8.174220 36,025 321 458 64
2019-05-19 19:27:06 GMT 45.086884 8.181349 36,000 321 458 64
2019-05-19 19:27:01 GMT 45.081619 8.187430 36,000 321 459 64
2019-05-19 19:26:58 GMT 45.078022 8.191580 36,000 321 459 128
2019-05-19 19:26:55 GMT 45.071133 8.199552 36,000 321 459 128
2019-05-19 19:26:52 GMT 45.064846 8.206787 36,000 321 459 128
2019-05-19 19:26:47 GMT 45.057953 8.214765 35,950 321 459 320
2019-05-19 19:26:44 GMT 45.053349 8.220051 35,975 321 459 448
2019-05-19 19:26:41 GMT 45.039848 8.235593 35,925 321 459 1088
2019-05-19 19:26:36 GMT 45.039848 8.235593 35,900 321 459 1024
2019-05-19 19:26:33 GMT 45.035240 8.240885 35,850 321 459 1216
2019-05-19 19:26:30 GMT 45.030624 8.246220 35,800 321 459 1408
2019-05-19 19:26:26 GMT 45.024399 8.253414 35,600 321 461 1408
2019-05-19 19:26:23 GMT 45.018761 8.259910 35,650 321 461 1408
2019-05-19 19:26:20 GMT 45.006191 8.274380 35,450 321 461 1152
2019-05-19 19:26:16 GMT 45.006191 8.274380 35,475 321 462 768
2019-05-19 19:26:13 GMT 45.002235 8.278935 35,450 321 462 832
2019-05-19 19:26:10 GMT 44.998230 8.283490 35,400 321 462 768
2019-05-19 19:26:07 GMT 44.990597 8.292266 35,325 321 462 832
2019-05-19 19:26:03 GMT 44.985306 8.298340 35,150 321 461 512
2019-05-19 19:25:59 GMT 44.977020 8.307822 35,225 321 461 960
2019-05-19 19:25:55 GMT 44.970066 8.315847 35,175 321 461 1088
2019-05-19 19:25:52 GMT 44.967739 8.318459 35,150 321 461 1088
2019-05-19 19:25:47 GMT 44.959824 8.327637 35,050 321 461 1152
2019-05-19 19:25:42 GMT 44.951538 8.337149 34,975 321 462 704
2019-05-19 19:25:38 GMT 44.943253 8.346662 34,925 321 461 448
2019-05-19 19:25:33 GMT 44.936646 8.354252 34,875 321 460 640
2019-05-19 19:25:30 GMT 44.931709 8.359926 34,875 321 460 640
2019-05-19 19:25:26 GMT 44.924168 8.368634 34,800 321 459 1088
2019-05-19 19:25:21 GMT 44.916904 8.377008 34,775 321 459 1088
2019-05-19 19:25:16 GMT 44.908710 8.386454 34,650 321 459 1088
2019-05-19 19:25:10 GMT 44.897873 8.399048 34,575 321 459 960
2019-05-19 19:25:06 GMT 44.891327 8.406634 34,475 321 459 768
2019-05-19 19:25:00 GMT 44.882446 8.416835 34,450 321 459 576
2019-05-19 19:24:55 GMT 44.873566 8.426971 34,375 321 457 704
2019-05-19 19:24:52 GMT 44.868675 8.432610 34,325 322 456 1408
2019-05-19 19:24:49 GMT 44.864391 8.437500 34,325 322 456 1408
2019-05-19 19:24:44 GMT 44.855209 8.447963 34,250 321 456 896
2019-05-19 19:24:39 GMT 44.846375 8.458034 34,175 321 455 1088
2019-05-19 19:24:34 GMT 44.839188 8.466274 34,075 321 455 1280
2019-05-19 19:24:31 GMT 44.834599 8.471464 34,025 321 455 1344
2019-05-19 19:24:28 GMT 44.829666 8.477064 33,925 322 456 1408
2019-05-19 19:24:23 GMT 44.821472 8.486350 33,850 322 457 1920
2019-05-19 19:24:19 GMT 44.813557 8.495379 33,575 322 460 2432
2019-05-19 19:24:13 GMT 44.803970 8.506299 33,425 321 462 2688
2019-05-19 19:24:10 GMT 44.800663 8.510050 33,325 321 463 2688
2019-05-19 19:24:07 GMT 44.782242 8.531080 33,025 321 467 2048
2019-05-19 19:24:00 GMT 44.782242 8.531080 32,975 321 469 1792
2019-05-19 19:23:56 GMT 44.775478 8.538789 32,850 321 470 1472
2019-05-19 19:23:52 GMT 44.767052 8.548368 32,725 321 470 1152
2019-05-19 19:23:49 GMT 44.763336 8.552660 32,650 321 471 896
2019-05-19 19:23:46 GMT 44.758301 8.558417 32,625 321 471 768
2019-05-19 19:23:40 GMT 44.742798 8.576169 32,575 321 469 512
2019-05-19 19:23:37 GMT 44.742798 8.576169 32,550 321 468 576
2019-05-19 19:23:34 GMT 44.740101 8.579250 32,525 321 468 576
2019-05-19 19:23:29 GMT 44.727390 8.593787 32,450 321 466 704
2019-05-19 19:23:26 GMT 44.722366 8.599548 32,400 321 465 768
2019-05-19 19:23:19 GMT 44.714355 8.608726 32,350 321 465 768
2019-05-19 19:23:16 GMT 44.707672 8.616289 32,300 321 464 704
2019-05-19 19:23:13 GMT 44.704376 8.620148 32,275 321 464 704
2019-05-19 19:23:10 GMT 44.700016 8.625071 32,250 321 464 640
2019-05-19 19:23:07 GMT 44.692062 8.634142 32,200 321 462 704
2019-05-19 19:23:04 GMT 44.686749 8.640211 32,150 321 462 832
2019-05-19 19:22:59 GMT 44.680744 8.647044 32,075 321 461 1088
2019-05-19 19:22:55 GMT 44.669853 8.659437 31,975 321 461 1216
2019-05-19 19:22:49 GMT 44.664219 8.665868 31,925 321 462 1280
2019-05-19 19:22:45 GMT 44.657234 8.673773 31,850 321 462 1280
2019-05-19 19:22:42 GMT 44.653278 8.678328 31,750 321 462 1408
2019-05-19 19:22:39 GMT 44.647293 8.685085 31,650 321 462 1152
2019-05-19 19:22:35 GMT 44.641640 8.691525 31,600 321 455 1024
2019-05-19 19:22:32 GMT 44.635666 8.698295 31,500 321 462 832
2019-05-19 19:22:28 GMT 44.629669 8.705096 31,500 321 462 896
2019-05-19 19:22:24 GMT 44.622025 8.713728 29,250 322 461 960
2019-05-19 19:22:21 GMT 44.617386 8.718991 31,375 322 461 1024
2019-05-19 19:22:17 GMT 44.610764 8.726480 31,325 322 460 960
2019-05-19 19:22:14 GMT 44.604118 8.733997 31,250 321 453 896
2019-05-19 19:22:11 GMT 44.601471 8.736943 31,175 322 460 768
2019-05-19 19:22:08 GMT 44.594513 8.744790 31,150 322 459 704
2019-05-19 19:22:04 GMT 44.590202 8.749606 31,125 322 458 704
2019-05-19 19:22:00 GMT 44.583263 8.757443 31,025 322 458 704
2019-05-19 19:21:57 GMT 44.577347 8.764082 31,050 322 457 768
2019-05-19 19:21:51 GMT 44.568134 8.774459 31,000 322 456 768
2019-05-19 19:21:48 GMT 44.563202 8.780038 30,925 322 456 896
2019-05-19 19:21:45 GMT 44.558964 8.784842 30,875 321 455 960
2019-05-19 19:21:39 GMT 44.547836 8.797436 30,750 321 454 1024
2019-05-19 19:21:36 GMT 44.543228 8.802594 30,750 321 454 1024
2019-05-19 19:21:32 GMT 44.537037 8.809628 30,675 322 453 1152
2019-05-19 19:21:29 GMT 44.526581 8.821368 30,550 322 453 1152
2019-05-19 19:21:26 GMT 44.526581 8.821368 30,550 322 453 1152
2019-05-19 19:21:22 GMT 44.520721 8.828038 30,450 322 453 1280
2019-05-19 19:21:18 GMT 44.514496 8.834970 30,375 322 453 1280
2019-05-19 19:21:15 GMT 44.510605 8.839417 30,325 322 453 1280
2019-05-19 19:21:11 GMT 44.502777 8.848214 30,225 322 453 1216
2019-05-19 19:21:05 GMT 44.492302 8.860005 30,100 322 453 1088
2019-05-19 19:21:01 GMT 44.486435 8.866570 30,025 322 453 1088
2019-05-19 19:20:58 GMT 44.475357 8.879046 29,925 322 451 960
2019-05-19 19:20:55 GMT 44.475357 8.879046 29,900 322 451 960
2019-05-19 19:20:51 GMT 44.470467 8.884456 29,825 322 450 960
2019-05-19 19:20:47 GMT 44.464645 8.891078 29,775 322 450 1024
2019-05-19 19:20:44 GMT 44.456829 8.899797 29,725 322 450 1280
2019-05-19 19:20:40 GMT 44.447426 8.910381 29,600 322 449 1344
2019-05-19 19:20:37 GMT 44.442581 8.915798 29,550 322 449 1344
2019-05-19 19:20:34 GMT 44.442581 8.915798 29,525 322 449 1344
2019-05-19 19:20:30 GMT 44.436440 8.922707 29,400 322 449 1280
2019-05-19 19:20:26 GMT 44.430618 8.929272 29,400 322 449 1280
2019-05-19 19:20:23 GMT 44.418331 8.943072 29,250 322 448 896
2019-05-19 19:20:20 GMT 44.418331 8.943072 29,225 321 441 1024
2019-05-19 19:20:17 GMT 44.413467 8.948495 29,175 322 447 896
2019-05-19 19:20:14 GMT 44.410263 8.952092 29,125 322 447 896
2019-05-19 19:20:11 GMT 44.405731 8.957193 29,075 322 446 896
2019-05-19 19:20:07 GMT 44.398685 8.965112 28,750 322 443 1344
2019-05-19 19:20:04 GMT 44.391933 8.972682 28,950 322 445 1088
2019-05-19 19:20:00 GMT 44.388382 8.976615 28,825 322 444 1216
2019-05-19 19:19:56 GMT 44.380714 8.985209 28,825 322 443 1280
2019-05-19 19:19:53 GMT 44.376526 8.989831 28,750 322 443 1344
2019-05-19 19:19:49 GMT 44.369797 8.997345 28,675 322 443 1344
2019-05-19 19:19:45 GMT 44.364716 9.003100 28,525 322 443 1280
2019-05-19 19:19:42 GMT 44.360233 9.008119 28,475 322 442 1216
2019-05-19 19:19:38 GMT 44.352585 9.016636 28,300 322 441 1216
2019-05-19 19:19:35 GMT 44.347458 9.022391 28,350 322 441 1216
2019-05-19 19:19:31 GMT 44.341099 9.029489 28,275 322 441 1216
2019-05-19 19:19:27 GMT 44.335049 9.036255 28,200 322 440 1152
2019-05-19 19:19:23 GMT 44.328064 9.044026 28,100 322 440 1216
2019-05-19 19:19:18 GMT 44.321407 9.051462 28,025 322 439 1216
2019-05-19 19:19:14 GMT 44.313766 9.059928 27,900 322 438 1344
2019-05-19 19:19:10 GMT 44.309025 9.065261 27,900 322 438 1344
2019-05-19 19:19:07 GMT 44.303020 9.071960 27,550 322 438 1408
2019-05-19 19:19:01 GMT 44.293533 9.082489 27,650 322 437 1408
2019-05-19 19:18:57 GMT 44.287262 9.089552 27,525 322 436 1472
2019-05-19 19:18:51 GMT 44.277786 9.100146 27,425 322 436 1472
2019-05-19 19:18:48 GMT 44.273041 9.105388 27,325 322 436 1344
2019-05-19 19:18:44 GMT 44.267395 9.111720 27,175 322 436 1280
2019-05-19 19:18:41 GMT 44.260757 9.119110 27,125 322 435 1216
2019-05-19 19:18:38 GMT 44.256050 9.124346 27,050 322 435 1216
2019-05-19 19:18:33 GMT 44.250092 9.131012 26,925 322 434 1216
2019-05-19 19:18:29 GMT 44.244141 9.137617 26,875 322 434 1344
2019-05-19 19:18:24 GMT 44.234436 9.148407 26,750 322 433 1472
2019-05-19 19:18:21 GMT 44.230362 9.152919 26,700 322 432 1536
2019-05-19 19:18:18 GMT 44.225967 9.157824 26,625 322 432 1536
2019-05-19 19:18:14 GMT 44.219421 9.165083 26,475 322 431 1536
2019-05-19 19:18:11 GMT 44.216015 9.168895 26,475 322 431 1536
2019-05-19 19:18:08 GMT 44.211960 9.173453 26,225 322 431 1536
2019-05-19 19:18:00 GMT 44.196350 9.190783 26,125 322 431 1472
2019-05-19 19:17:57 GMT 44.185181 9.203158 26,000 322 429 1024
2019-05-19 19:17:52 GMT 44.180237 9.208651 25,950 322 427 1024
2019-05-19 19:17:49 GMT 44.180237 9.208651 25,900 322 427 1024
2019-05-19 19:17:46 GMT 44.177124 9.212100 25,875 322 426 1088
2019-05-19 19:17:43 GMT 44.172485 9.217268 25,825 321 419 1088
2019-05-19 19:17:39 GMT 44.166962 9.223406 25,725 322 424 1088
2019-05-19 19:17:36 GMT 44.159271 9.231901 25,525 322 419 1664
2019-05-19 19:17:29 GMT 44.149815 9.242379 25,575 322 420 1344
2019-05-19 19:17:26 GMT 44.144623 9.248125 25,500 322 421 1344
2019-05-19 19:17:23 GMT 44.142181 9.250815 25,450 322 420 1408
2019-05-19 19:17:17 GMT 44.133102 9.260886 25,300 322 419 1600
2019-05-19 19:17:14 GMT 44.127331 9.267295 25,200 322 419 1664
2019-05-19 19:17:10 GMT 44.116718 9.279000 25,050 322 418 1600
2019-05-19 19:17:07 GMT 44.112808 9.283382 24,950 322 417 1600
2019-05-19 19:16:58 GMT 44.104019 9.293028 24,775 322 416 1664
2019-05-19 19:16:54 GMT 44.097401 9.300385 24,700 322 416 1664
2019-05-19 19:16:46 GMT 44.086273 9.312679 24,325 322 414 1728
2019-05-19 19:16:43 GMT 44.080856 9.318642 24,350 322 414 1728
2019-05-19 19:16:38 GMT 44.072113 9.328223 24,100 322 414 1664
2019-05-19 19:16:35 GMT 44.065838 9.335175 24,050 322 413 1600
2019-05-19 19:16:28 GMT 44.058655 9.343106 23,875 322 412 1664
2019-05-19 19:16:24 GMT 44.051453 9.350935 23,750 322 412 1600
2019-05-19 19:16:21 GMT 44.047302 9.355561 23,725 322 406 1600
2019-05-19 19:16:18 GMT 44.041908 9.361463 23,650 322 410 1472
2019-05-19 19:16:14 GMT 44.032700 9.371593 23,500 322 409 1408
2019-05-19 19:16:11 GMT 44.032700 9.371593 23,425 322 408 1472
2019-05-19 19:16:07 GMT 44.026779 9.378074 23,375 322 408 1472
2019-05-19 19:16:04 GMT 44.023239 9.381997 23,325 322 406 1600
2019-05-19 19:16:01 GMT 44.018211 9.387490 23,200 322 406 1600
2019-05-19 19:15:54 GMT 44.007660 9.399187 22,775 322 405 1792
2019-05-19 19:15:50 GMT 44.001221 9.406259 22,925 322 404 1792
2019-05-19 19:15:42 GMT 43.984928 9.424438 22,625 322 403 1792
2019-05-19 19:15:39 GMT 43.984928 9.424438 22,575 322 402 1792
2019-05-19 19:15:32 GMT 43.975616 9.434701 22,400 323 401 1856
2019-05-19 19:15:29 GMT 43.970310 9.440395 22,300 323 399 1856
2019-05-19 19:15:22 GMT 43.960022 9.450400 22,050 327 399 1856
2019-05-19 19:15:18 GMT 43.955044 9.454847 21,950 329 398 1728
2019-05-19 19:15:11 GMT 43.943031 9.464722 21,725 331 395 1472
2019-05-19 19:15:08 GMT 43.938889 9.467991 21,675 331 396 1472
2019-05-19 19:15:00 GMT 43.927158 9.477343 21,450 331 388 1984
2019-05-19 19:14:57 GMT 43.921783 9.481584 21,375 331 393 1792
2019-05-19 19:14:50 GMT 43.910168 9.490880 21,175 330 391 1984
2019-05-19 19:14:46 GMT 43.902008 9.497361 21,000 331 391 1984
2019-05-19 19:14:36 GMT 43.889496 9.507359 20,725 331 389 1920
2019-05-19 19:14:32 GMT 43.883560 9.512052 20,600 331 389 1984
2019-05-19 19:14:27 GMT 43.874176 9.519462 20,325 331 386 2048
2019-05-19 19:14:18 GMT 43.851418 9.537179 19,900 331 386 2112
2019-05-19 19:14:13 GMT 43.845783 9.541495 19,875 332 385 2240
2019-05-19 19:14:08 GMT 43.845783 9.541495 19,225 332 385 2240
2019-05-19 19:14:05 GMT 43.839592 9.546204 19,225 332 385 2240
2019-05-19 19:14:02 GMT 43.822926 9.558694 19,525 332 385 2240
2019-05-19 19:13:55 GMT 43.822926 9.558694 19,225 332 385 2240
2019-05-19 19:13:46 GMT 43.811005 9.567431 18,900 332 384 2432
2019-05-19 19:13:41 GMT 43.790760 9.585637 18,600 312 382 1280
2019-05-19 19:13:34 GMT 43.787888 9.589340 18,425 316 384 1280
2019-05-19 19:13:31 GMT 43.780930 9.599751 18,300 312 382 1280
2019-05-19 19:13:25 GMT 43.780930 9.599751 18,300 309 381 1472
2019-05-19 19:13:20 GMT 43.776512 9.607936 18,175 304 378 1856
2019-05-19 19:13:14 GMT 43.770786 9.621146 17,975 298 377 2240
2019-05-19 19:13:11 GMT 43.768845 9.626834 17,825 295 377 2240
2019-05-19 19:13:08 GMT 43.766556 9.634371 17,750 292 376 1984
2019-05-19 19:13:03 GMT 43.763397 9.646507 17,600 290 374 1728
2019-05-19 19:12:59 GMT 43.761246 9.655086 17,450 290 373 1600
2019-05-19 19:12:54 GMT 43.758545 9.665861 17,350 290 370 1536
2019-05-19 19:12:51 GMT 43.756870 9.672612 17,225 290 368 1728
2019-05-19 19:12:48 GMT 43.754311 9.682813 17,150 290 368 1792
2019-05-19 19:12:43 GMT 43.752274 9.690772 17,025 290 366 1920
2019-05-19 19:12:38 GMT 43.749187 9.703086 16,850 290 363 2240
2019-05-19 19:12:32 GMT 43.746532 9.713614 16,650 290 363 2432
2019-05-19 19:12:29 GMT 43.744995 9.719707 16,500 290 363 2560
2019-05-19 19:12:26 GMT 43.743370 9.726301 16,425 290 362 2496
2019-05-19 19:12:22 GMT 43.740715 9.736764 16,225 290 362 2368
2019-05-19 19:12:19 GMT 43.738861 9.744170 16,100 290 362 2240
2019-05-19 19:12:16 GMT 43.736664 9.752917 15,950 290 361 2112
2019-05-19 19:12:11 GMT 43.735245 9.758542 15,775 290 358 1856
2019-05-19 19:12:07 GMT 43.732910 9.767612 15,725 290 358 1664
2019-05-19 19:12:02 GMT 43.729263 9.782213 15,550 290 353 1600
2019-05-19 19:11:58 GMT 43.727402 9.789472 15,475 290 351 1920
2019-05-19 19:11:54 GMT 43.725494 9.797058 15,350 290 350 2368
2019-05-19 19:11:50 GMT 43.723446 9.805102 15,225 290 349 2624
2019-05-19 19:11:46 GMT 43.721722 9.811837 15,050 290 349 2816
2019-05-19 19:11:42 GMT 43.718651 9.824001 14,675 290 349 2880
2019-05-19 19:11:39 GMT 43.717579 9.828186 14,675 290 349 2880
2019-05-19 19:11:35 GMT 43.715195 9.837490 14,550 290 349 2624
2019-05-19 19:11:30 GMT 43.712643 9.847543 14,300 290 348 2368
2019-05-19 19:11:24 GMT 43.708874 9.862191 14,000 290 346 2496
2019-05-19 19:11:18 GMT 43.706638 9.870889 13,825 290 345 2560
2019-05-19 19:11:14 GMT 43.704498 9.879259 13,650 290 344 2688
2019-05-19 19:11:11 GMT 43.701656 9.890442 13,425 290 344 2304
2019-05-19 19:11:08 GMT 43.701145 9.892469 13,400 290 344 2304
2019-05-19 19:11:03 GMT 43.697655 9.906137 13,175 290 340 2240
2019-05-19 19:10:58 GMT 43.695877 9.913053 13,000 290 339 2240
2019-05-19 19:10:53 GMT 43.693371 9.922878 12,675 290 336 2624
2019-05-19 19:10:48 GMT 43.690533 9.933799 12,625 290 335 2496
2019-05-19 19:10:41 GMT 43.686539 9.949525 12,325 290 333 1856
2019-05-19 19:10:38 GMT 43.684807 9.956294 12,225 290 330 2176
2019-05-19 19:10:31 GMT 43.675552 9.993024 11,900 290 333 1408
2019-05-19 19:10:20 GMT 43.675552 9.993024 11,700 290 334 1536
2019-05-19 19:10:11 GMT 43.672028 10.007140 11,475 290 334 2752
2019-05-19 19:10:07 GMT 43.669464 10.017168 11,350 290 334 2688
2019-05-19 19:09:55 GMT 43.663834 10.039460 10,950 290 327 1280
2019-05-19 19:09:45 GMT 43.659027 10.058303 10,775 290 314 832
2019-05-19 19:09:35 GMT 43.651886 10.086407 10,525 290 292 1408
2019-05-19 19:09:25 GMT 43.649506 10.095797 10,400 290 286 1664
2019-05-19 19:09:20 GMT 43.647655 10.102975 10,250 290 283 2240
2019-05-19 19:09:14 GMT 43.645111 10.113107 10,025 290 278 2624
2019-05-19 19:09:10 GMT 43.642956 10.121482 9,825 290 278 2688
2019-05-19 19:09:03 GMT 43.639664 10.134121 9,475 290 276 2880
2019-05-19 19:08:59 GMT 43.638580 10.138419 9,300 290 274 3008
2019-05-19 19:08:51 GMT 43.635178 10.151559 8,900 290 274 3264
2019-05-19 19:08:48 GMT 43.633972 10.156206 8,750 290 273 3328
2019-05-19 19:08:42 GMT 43.631241 10.166697 8,425 290 273 3200
2019-05-19 19:08:39 GMT 43.629547 10.173274 8,225 290 272 2816
2019-05-19 19:08:32 GMT 43.627258 10.182154 7,925 290 272 2624
2019-05-19 19:08:25 GMT 43.624149 10.194135 7,625 290 269 2688
2019-05-19 19:08:22 GMT 43.622566 10.200217 7,450 290 266 2816
2019-05-19 19:08:10 GMT 43.617584 10.219574 6,875 290 261 2624
2019-05-19 19:08:00 GMT 43.614029 10.233637 6,500 290 256 2688
2019-05-19 19:07:49 GMT 43.609726 10.250755 6,000 290 251 3008
2019-05-19 19:07:39 GMT 43.605808 10.266462 5,375 289 249 3840
2019-05-19 19:07:28 GMT 43.602264 10.284353 4,650 279 252 4096
2019-05-19 19:07:18 GMT 43.603363 10.301854 3,925 253 253 2816
2019-05-19 19:07:06 GMT 43.609390 10.318386 3,450 233 247 1920
2019-05-19 19:06:54 GMT 43.617783 10.329384 3,125 216 234 1856
2019-05-19 19:06:43 GMT 43.627258 10.338071 2,825 214 218 1024
2019-05-19 19:06:34 GMT 43.635681 10.345544 2,675 213 199 1088
2019-05-19 19:06:22 GMT 43.644352 10.353306 2,475 214 185 1216
2019-05-19 19:06:11 GMT 43.651245 10.359660 2,250 216 172 1664
2019-05-19 19:06:02 GMT 43.657928 10.366559 1,950 218 162 1792
2019-05-19 19:05:51 GMT 43.663811 10.372925 1,650 219 152 2624
2019-05-19 19:05:40 GMT 43.669510 10.379270 1,150 219 154 3136

Making use of Plane Finder data

You are free to use the raw flight data, aircraft information and images provided in this report for your own purposes provided the data is correctly attributed to Plane Finder. We ask that you please credit Plane Finder and link to planefinder.net in close proximity to the content.

Optionally one of the following logos (no smaller then 150x24px) can be used and must link to planefinder.net

Embedding the Plane Finder map

You are welcome to embed the Plane Finder playback map on your website to offer visitors a more interactive experience. We suggest using the following HTML code:

<iframe src="//planefinder.net/data/report/U24216-OE-IVZ-7700-squawk-2019-05-19/map" width="800" height="600" seamless="seamless"></iframe>

Where our data comes from

Plane Finder has a global network of data feeds and antenna radars that receive data broadcast directly from aircraft. The primary technologies used are ADS-B and MLAT. We also show feeds from the FAA and a FLARM glider feed.

Click here to find out more about the Plane Finder network.

How we collect our data